createdAt,value
2022-09-01T00:00:13.540Z,100402.81
2022-09-01T00:02:45.478Z,100409.00
2022-09-01T00:05:14.019Z,100400.38
2022-09-01T00:07:45.273Z,100402.19
2022-09-01T00:10:14.366Z,100403.00
2022-09-01T00:12:43.533Z,100399.63
2022-09-01T00:15:14.201Z,100406.59
2022-09-01T00:17:43.082Z,100404.88
2022-09-01T00:20:15.894Z,100401.31
2022-09-01T00:22:48.564Z,100409.09
2022-09-01T00:25:20.582Z,100402.88
2022-09-01T00:27:49.446Z,100406.28
2022-09-01T00:30:18.476Z,100400.97
2022-09-01T00:32:47.673Z,100404.28
2022-09-01T00:35:17.590Z,100406.84
2022-09-01T00:37:47.707Z,100404.16
2022-09-01T00:40:18.824Z,100403.28
2022-09-01T00:42:49.446Z,100398.91
2022-09-01T00:45:19.573Z,100403.22
2022-09-01T00:47:51.039Z,100403.22
2022-09-01T00:50:21.347Z,100405.78
2022-09-01T00:52:54.511Z,100401.47
2022-09-01T00:55:28.334Z,100405.78
2022-09-01T00:57:58.408Z,100401.47
2022-09-01T01:00:31.222Z,100402.47
2022-09-01T01:03:00.622Z,100400.81
2022-09-01T01:05:35.237Z,100406.03
2022-09-01T01:08:08.442Z,100405.09
2022-09-01T01:10:42.054Z,100409.50
2022-09-01T01:13:14.167Z,100413.81
2022-09-01T01:15:44.395Z,100415.47
2022-09-01T01:18:14.161Z,100405.78
2022-09-01T01:21:02.181Z,100405.72
2022-09-01T01:23:39.270Z,100408.34
2022-09-01T01:26:11.612Z,100406.72
2022-09-01T01:28:44.553Z,100409.41
2022-09-01T01:31:16.423Z,100408.78
2022-09-01T01:33:53.111Z,100401.03
2022-09-01T01:36:38.272Z,100401.19
2022-09-01T01:39:19.063Z,100404.59
2022-09-01T01:41:57.161Z,100397.75
2022-09-01T01:44:29.735Z,100393.66
2022-09-01T01:47:09.970Z,100392.00
2022-09-01T01:49:40.265Z,100395.50
2022-09-01T01:52:14.958Z,100398.97
2022-09-01T01:54:44.060Z,100397.13
2022-09-01T01:57:17.311Z,100397.91
2022-09-01T01:59:47.358Z,100404.94
2022-09-01T02:02:16.302Z,100396.47
2022-09-01T02:04:45.097Z,100400.16
2022-09-01T02:07:15.143Z,100395.19
2022-09-01T02:09:48.297Z,100393.63
2022-09-01T02:12:19.794Z,100389.50
2022-09-01T02:14:48.763Z,100390.66
2022-09-01T02:17:18.966Z,100391.78
2022-09-01T02:19:48.714Z,100390.25
2022-09-01T02:22:20.015Z,100385.16
2022-09-01T02:24:49.881Z,100392.44
2022-09-01T02:27:22.153Z,100382.75
2022-09-01T02:29:55.670Z,100381.44
2022-09-01T02:32:24.959Z,100379.88
2022-09-01T02:34:56.923Z,100387.22
2022-09-01T02:37:25.845Z,100386.78
2022-09-01T02:39:57.865Z,100392.88
2022-09-01T02:42:31.026Z,100391.72
2022-09-01T02:44:59.985Z,100391.31
2022-09-01T02:47:32.514Z,100387.34
2022-09-01T02:50:03.797Z,100397.19
2022-09-01T02:52:40.674Z,100391.66
2022-09-01T02:55:11.945Z,100392.88
2022-09-01T02:57:42.223Z,100395.69
2022-09-01T03:00:21.078Z,100404.59
2022-09-01T03:02:53.024Z,100409.44
2022-09-01T03:05:25.560Z,100395.09
2022-09-01T03:07:56.792Z,100401.59
2022-09-01T03:10:33.005Z,100413.31
2022-09-01T03:13:06.753Z,100403.25
2022-09-01T03:15:37.686Z,100398.28
2022-09-01T03:18:08.937Z,100402.03
2022-09-01T03:20:43.760Z,100397.03
2022-09-01T03:23:15.811Z,100404.84
2022-09-01T03:25:49.435Z,100393.59
2022-09-01T03:28:20.186Z,100398.06
2022-09-01T03:30:51.440Z,100394.63
2022-09-01T03:33:22.247Z,100396.56
2022-09-01T03:35:51.115Z,100401.00
2022-09-01T03:38:24.567Z,100402.81
2022-09-01T03:40:59.211Z,100402.91
2022-09-01T03:43:36.101Z,100398.28
2022-09-01T03:46:06.430Z,100399.84
2022-09-01T03:48:36.084Z,100401.34
2022-09-01T03:51:05.107Z,100403.75
2022-09-01T03:53:38.297Z,100408.88
2022-09-01T03:56:09.275Z,100405.25
2022-09-01T03:58:42.896Z,100400.69
2022-09-01T04:01:13.928Z,100400.56
2022-09-01T04:03:44.280Z,100402.31
2022-09-01T04:06:14.022Z,100401.28
2022-09-01T04:08:43.352Z,100401.97
2022-09-01T04:11:16.589Z,100400.00
2022-09-01T04:13:48.370Z,100403.25
2022-09-01T04:16:40.152Z,100404.84
2022-09-01T04:19:16.333Z,100406.41
2022-09-01T04:21:46.055Z,100404.53
2022-09-01T04:24:16.171Z,100405.31
2022-09-01T04:26:48.981Z,100406.91
2022-09-01T04:29:24.325Z,100397.03
2022-09-01T04:31:53.854Z,100398.75
2022-09-01T04:34:24.986Z,100401.19
2022-09-01T04:36:55.629Z,100408.88
2022-09-01T04:39:25.050Z,100412.22
2022-09-01T04:41:55.365Z,100409.47
2022-09-01T04:44:25.618Z,100406.75
2022-09-01T04:46:55.537Z,100414.34
2022-09-01T04:49:26.494Z,100412.50
2022-09-01T04:51:56.143Z,100410.44
2022-09-01T04:54:27.076Z,100415.31
2022-09-01T04:56:55.763Z,100417.56
2022-09-01T04:59:29.874Z,100418.09
2022-09-01T05:02:01.651Z,100420.41
2022-09-01T05:04:34.021Z,100423.63
2022-09-01T05:07:05.923Z,100425.09
2022-09-01T05:09:39.322Z,100423.00
2022-09-01T05:12:27.855Z,100433.22
2022-09-01T05:15:04.123Z,100421.63
2022-09-01T05:17:33.459Z,100423.16
2022-09-01T05:20:02.148Z,100416.75
2022-09-01T05:22:31.450Z,100415.59
2022-09-01T05:25:11.956Z,100408.47
2022-09-01T05:27:45.112Z,100408.94
2022-09-01T05:30:17.071Z,100407.00
2022-09-01T05:32:49.332Z,100413.75
2022-09-01T05:35:19.120Z,100411.69
2022-09-01T05:37:52.016Z,100415.66
2022-09-01T05:40:21.699Z,100420.44
2022-09-01T05:42:50.845Z,100414.97
2022-09-01T05:45:23.431Z,100410.34
2022-09-01T05:47:53.418Z,100410.84
2022-09-01T05:50:21.812Z,100414.06
2022-09-01T05:52:51.276Z,100408.41
2022-09-01T05:55:20.022Z,100419.34
2022-09-01T05:57:50.297Z,100411.88
2022-09-01T06:00:21.212Z,100417.53
2022-09-01T06:02:51.644Z,100418.72
2022-09-01T06:05:27.103Z,100421.56
2022-09-01T06:07:57.416Z,100409.47
2022-09-01T06:10:27.303Z,100411.13
2022-09-01T06:12:57.023Z,100417.94
2022-09-01T06:15:31.058Z,100417.97
2022-09-01T06:18:01.013Z,100423.38
2022-09-01T06:20:31.942Z,100420.06
2022-09-01T06:23:01.079Z,100426.31
2022-09-01T06:25:30.800Z,100424.84
2022-09-01T06:28:01.158Z,100423.25
2022-09-01T06:30:33.108Z,100427.00
2022-09-01T06:33:10.644Z,100426.13
2022-09-01T06:35:42.187Z,100428.00
2022-09-01T06:38:12.150Z,100421.06
2022-09-01T06:40:45.330Z,100433.59
2022-09-01T06:43:17.500Z,100433.47
2022-09-01T06:45:54.742Z,100435.22
2022-09-01T06:48:25.304Z,100435.38
2022-09-01T06:51:21.011Z,100434.47
2022-09-01T06:53:57.009Z,100430.31
2022-09-01T06:56:32.169Z,100433.25
2022-09-01T06:59:05.274Z,100443.84
2022-09-01T07:04:32.721Z,100437.69
2022-09-01T07:10:24.535Z,100453.09
2022-09-01T07:13:05.473Z,100447.19
2022-09-01T07:18:28.322Z,100446.69
2022-09-01T07:24:07.815Z,100452.84
2022-09-01T07:26:46.582Z,100442.06
2022-09-01T07:29:16.809Z,100449.97
2022-09-01T07:31:49.495Z,100448.00
2022-09-01T07:34:38.571Z,100457.22
2022-09-01T07:41:43.316Z,100442.91
2022-09-01T07:43:09.904Z,100470.63
2022-09-01T07:49:29.427Z,100468.28
2022-09-01T07:51:51.432Z,100463.78
2022-09-01T07:54:24.109Z,100465.25
2022-09-01T07:56:54.891Z,100471.78
2022-09-01T07:59:24.357Z,100468.41
2022-09-01T08:02:04.808Z,100467.44
2022-09-01T08:04:34.625Z,100466.78
2022-09-01T08:07:06.256Z,100460.81
2022-09-01T08:09:44.122Z,100462.19
2022-09-01T08:12:14.453Z,100460.06
2022-09-01T08:17:51.285Z,100455.53
2022-09-01T08:20:20.663Z,100460.59
2022-09-01T08:22:55.370Z,100470.53
2022-09-01T08:25:51.854Z,100465.19
2022-09-01T08:28:29.202Z,100473.53
2022-09-01T08:31:00.253Z,100476.69
2022-09-01T08:33:31.233Z,100470.88
2022-09-01T08:35:59.733Z,100470.63
2022-09-01T08:38:30.231Z,100466.00
2022-09-01T08:41:01.307Z,100470.06
2022-09-01T08:43:49.261Z,100471.75
2022-09-01T08:46:24.105Z,100465.66
2022-09-01T08:49:24.324Z,100473.38
2022-09-01T08:52:24.143Z,100472.13
2022-09-01T08:55:01.888Z,100464.63
2022-09-01T08:57:35.716Z,100455.03
2022-09-01T09:00:25.728Z,100467.28
2022-09-01T09:03:12.293Z,100467.38
2022-09-01T09:05:57.460Z,100469.16
2022-09-01T09:08:58.069Z,100468.91
2022-09-01T09:11:52.710Z,100455.56
2022-09-01T09:14:34.407Z,100464.31
2022-09-01T09:17:04.568Z,100454.41
2022-09-01T09:19:38.360Z,100450.75
2022-09-01T09:22:11.305Z,100468.97
2022-09-01T09:24:50.478Z,100456.09
2022-09-01T09:27:22.876Z,100459.19
2022-09-01T09:29:53.771Z,100459.06
2022-09-01T09:32:35.266Z,100455.22
2022-09-01T09:35:25.129Z,100455.94
2022-09-01T09:37:56.128Z,100455.19
2022-09-01T09:40:27.119Z,100454.78
2022-09-01T09:43:08.447Z,100449.38
2022-09-01T09:45:42.058Z,100449.06
2022-09-01T09:48:29.005Z,100444.56
2022-09-01T09:50:58.184Z,100446.13
2022-09-01T09:53:30.743Z,100448.78
2022-09-01T09:56:02.337Z,100441.31
2022-09-01T09:58:40.827Z,100450.41
2022-09-01T10:01:17.735Z,100445.28
2022-09-01T10:03:50.458Z,100448.63
2022-09-01T10:06:34.521Z,100447.25
2022-09-01T10:09:05.268Z,100450.41
2022-09-01T10:11:41.636Z,100453.25
2022-09-01T10:14:47.636Z,100435.84
2022-09-01T10:17:13.552Z,100433.03
2022-09-01T10:19:54.377Z,100436.19
2022-09-01T10:22:25.114Z,100430.22
2022-09-01T10:24:54.019Z,100432.69
2022-09-01T10:27:28.787Z,100433.97
2022-09-01T10:30:12.622Z,100436.41
2022-09-01T10:32:52.429Z,100430.06
2022-09-01T10:35:27.307Z,100427.84
2022-09-01T10:37:59.348Z,100426.00
2022-09-01T10:40:43.923Z,100434.41
2022-09-01T10:43:46.830Z,100434.09
2022-09-01T10:46:51.169Z,100432.97
2022-09-01T10:50:01.270Z,100433.47
2022-09-01T10:52:54.156Z,100428.75
2022-09-01T10:55:25.835Z,100421.09
2022-09-01T11:01:25.348Z,100414.75
2022-09-01T11:04:05.236Z,100418.88
2022-09-01T11:07:38.825Z,100421.28
2022-09-01T11:10:32.075Z,100416.00
2022-09-01T11:13:23.983Z,100414.34
2022-09-01T11:15:53.031Z,100418.34
2022-09-01T11:18:28.014Z,100419.59
2022-09-01T11:21:16.369Z,100419.47
2022-09-01T11:23:46.448Z,100414.03
2022-09-01T11:26:48.313Z,100414.94
2022-09-01T11:29:50.026Z,100415.09
2022-09-01T11:32:25.539Z,100415.41
2022-09-01T11:34:57.034Z,100417.63
2022-09-01T11:37:27.951Z,100424.63
2022-09-01T11:40:00.590Z,100423.63
2022-09-01T11:42:36.236Z,100430.47
2022-09-01T11:45:20.556Z,100422.69
2022-09-01T11:47:53.137Z,100426.69
2022-09-01T11:50:24.217Z,100426.34
2022-09-01T11:53:04.672Z,100429.28
2022-09-01T11:55:37.754Z,100427.00
2022-09-01T11:58:07.239Z,100419.72
2022-09-01T12:00:39.183Z,100418.22
2022-09-01T12:03:23.457Z,100419.16
2022-09-01T12:06:00.685Z,100408.44
2022-09-01T12:08:34.948Z,100409.28
2022-09-01T12:11:06.055Z,100410.06
2022-09-01T12:13:36.059Z,100409.31
2022-09-01T12:16:18.085Z,100393.63
2022-09-01T12:18:49.350Z,100405.34
2022-09-01T12:21:23.136Z,100402.88
2022-09-01T12:23:53.895Z,100397.97
2022-09-01T12:26:26.038Z,100407.22
2022-09-01T12:28:54.941Z,100403.31
2022-09-01T12:31:27.429Z,100399.88
2022-09-01T12:34:04.929Z,100391.13
2022-09-01T12:36:37.089Z,100394.50
2022-09-01T12:39:25.152Z,100397.72
2022-09-01T12:42:06.865Z,100391.47
2022-09-01T12:44:44.266Z,100390.91
2022-09-01T12:47:15.939Z,100385.44
2022-09-01T12:49:50.479Z,100383.25
2022-09-01T12:52:26.189Z,100376.88
2022-09-01T12:55:47.429Z,100377.19
2022-09-01T12:58:06.448Z,100367.34
2022-09-01T13:00:37.588Z,100366.47
2022-09-01T13:03:14.307Z,100366.44
2022-09-01T13:05:44.595Z,100372.47
2022-09-01T13:08:15.991Z,100364.41
2022-09-01T13:10:48.746Z,100364.88
2022-09-01T13:13:19.281Z,100363.31
2022-09-01T13:15:50.461Z,100372.53
2022-09-01T13:18:20.640Z,100370.72
2022-09-01T13:20:49.946Z,100372.66
2022-09-01T13:23:19.182Z,100364.19
2022-09-01T13:25:49.668Z,100351.69
2022-09-01T13:28:20.777Z,100351.44
2022-09-01T13:36:46.455Z,100351.06
2022-09-01T13:39:21.350Z,100363.88
2022-09-01T13:41:51.589Z,100365.84
2022-09-01T13:44:20.587Z,100370.34
2022-09-01T13:50:06.470Z,100371.28
2022-09-01T13:52:27.218Z,100364.97
2022-09-01T13:54:56.109Z,100354.63
2022-09-01T13:57:26.366Z,100362.13
2022-09-01T13:59:56.546Z,100352.06
2022-09-01T14:02:27.680Z,100351.91
2022-09-01T14:04:56.456Z,100351.41
2022-09-01T14:07:25.947Z,100352.91
2022-09-01T14:09:55.246Z,100354.16
2022-09-01T14:12:26.540Z,100354.34
2022-09-01T14:17:44.829Z,100354.72
2022-09-01T14:20:18.513Z,100344.81
2022-09-01T14:22:48.405Z,100353.09
2022-09-01T14:25:18.215Z,100357.16
2022-09-01T14:27:50.629Z,100348.84
2022-09-01T14:30:23.576Z,100359.34
2022-09-01T14:32:54.556Z,100358.66
2022-09-01T14:35:26.560Z,100357.09
2022-09-01T14:37:58.813Z,100356.69
2022-09-01T14:40:29.532Z,100367.38
2022-09-01T14:42:59.811Z,100362.91
2022-09-01T14:45:29.885Z,100371.06
2022-09-01T14:48:01.248Z,100359.00
2022-09-01T14:50:32.928Z,100372.44
2022-09-01T14:53:03.403Z,100360.41
2022-09-01T14:55:34.391Z,100354.50
2022-09-01T14:58:05.805Z,100355.09
2022-09-01T15:00:37.252Z,100358.84
2022-09-01T15:03:06.716Z,100363.66
2022-09-01T15:05:38.338Z,100362.72
2022-09-01T15:08:15.465Z,100354.66
2022-09-01T15:10:47.820Z,100361.41
2022-09-01T15:13:18.531Z,100358.00
2022-09-01T15:15:47.930Z,100359.75
2022-09-01T15:18:17.229Z,100352.28
2022-09-01T15:20:47.086Z,100359.06
2022-09-01T15:23:18.621Z,100362.09
2022-09-01T15:25:48.049Z,100366.66
2022-09-01T15:28:18.575Z,100357.41
2022-09-01T15:30:49.229Z,100356.00
2022-09-01T15:33:19.561Z,100350.91
2022-09-01T15:35:48.675Z,100348.44
2022-09-01T15:38:18.393Z,100347.97
2022-09-01T15:40:57.722Z,100339.75
2022-09-01T15:43:32.013Z,100347.59
2022-09-01T15:46:02.316Z,100343.94
2022-09-01T15:48:31.143Z,100338.84
2022-09-01T15:51:25.005Z,100337.53
2022-09-01T15:53:57.719Z,100335.38
2022-09-01T15:56:26.629Z,100339.66
2022-09-01T15:59:01.679Z,100347.91
2022-09-01T16:01:33.425Z,100336.31
2022-09-01T16:04:03.659Z,100345.75
2022-09-01T16:06:33.679Z,100345.09
2022-09-01T16:09:02.887Z,100341.63
2022-09-01T16:11:31.778Z,100343.81
2022-09-01T16:14:02.348Z,100346.75
2022-09-01T16:16:42.508Z,100345.97
2022-09-01T16:19:23.017Z,100345.25
2022-09-01T16:21:59.179Z,100350.00
2022-09-01T16:24:28.513Z,100355.41
2022-09-01T16:26:58.347Z,100355.28
2022-09-01T16:29:35.972Z,100356.22
2022-09-01T16:32:04.902Z,100349.69
2022-09-01T16:34:34.979Z,100351.19
2022-09-01T16:37:12.051Z,100360.09
2022-09-01T16:39:47.341Z,100357.38
2022-09-01T16:42:28.513Z,100357.25
2022-09-01T16:45:06.146Z,100353.44
2022-09-01T16:47:49.191Z,100364.91
2022-09-01T16:50:28.777Z,100360.47
2022-09-01T16:53:11.196Z,100369.22
2022-09-01T16:55:51.747Z,100367.03
2022-09-01T16:58:24.703Z,100373.63
2022-09-01T17:01:12.973Z,100367.97
2022-09-01T17:03:56.222Z,100377.56
2022-09-01T17:06:32.028Z,100379.06
2022-09-01T17:09:11.433Z,100384.94
2022-09-01T17:11:49.136Z,100385.78
2022-09-01T17:14:25.640Z,100384.72
2022-09-01T17:17:08.937Z,100386.09
2022-09-01T17:19:40.875Z,100380.91
2022-09-01T17:22:11.655Z,100381.22
2022-09-01T17:24:42.965Z,100384.13
2022-09-01T17:27:15.899Z,100381.75
2022-09-01T17:29:47.428Z,100380.88
2022-09-01T17:32:41.688Z,100391.84
2022-09-01T17:35:24.555Z,100386.03
2022-09-01T17:38:04.858Z,100393.16
2022-09-01T17:40:53.799Z,100394.22
2022-09-01T17:43:30.075Z,100401.47
2022-09-01T17:46:09.691Z,100407.00
2022-09-01T17:48:50.975Z,100397.72
2022-09-01T17:51:29.978Z,100407.34
2022-09-01T17:54:10.068Z,100411.00
2022-09-01T17:56:48.894Z,100407.69
2022-09-01T17:59:28.787Z,100417.19
2022-09-01T18:02:12.212Z,100419.25
2022-09-01T18:04:53.317Z,100421.31
2022-09-01T18:07:36.385Z,100416.56
2022-09-01T18:10:09.091Z,100424.94
2022-09-01T18:12:40.782Z,100429.72
2022-09-01T18:15:13.805Z,100438.72
2022-09-01T18:17:45.964Z,100442.47
2022-09-01T18:20:23.117Z,100445.41
2022-09-01T18:22:57.230Z,100442.84
2022-09-01T18:25:36.959Z,100451.66
2022-09-01T18:28:05.529Z,100449.97
2022-09-01T18:30:52.582Z,100453.72
2022-09-01T18:33:29.113Z,100450.66
2022-09-01T18:36:25.934Z,100449.78
2022-09-01T18:38:59.367Z,100444.72
2022-09-01T18:41:52.316Z,100442.19
2022-09-01T18:44:34.994Z,100444.97
2022-09-01T18:47:05.673Z,100442.41
2022-09-01T18:49:48.006Z,100450.19
2022-09-01T18:52:28.066Z,100450.72
2022-09-01T18:55:05.283Z,100443.81
2022-09-01T18:57:38.848Z,100443.34
2022-09-01T19:00:17.765Z,100444.97
2022-09-01T19:03:06.019Z,100446.84
2022-09-01T19:05:46.200Z,100449.50
2022-09-01T19:08:28.503Z,100449.16
2022-09-01T19:11:05.271Z,100452.41
2022-09-01T19:13:54.216Z,100450.66
2022-09-01T19:16:36.709Z,100453.34
2022-09-01T19:19:17.050Z,100450.19
2022-09-01T19:21:48.041Z,100459.84
2022-09-01T19:24:27.697Z,100460.50
2022-09-01T19:27:01.808Z,100458.56
2022-09-01T19:29:34.714Z,100462.81
2022-09-01T19:32:10.331Z,100456.00
2022-09-01T19:34:44.381Z,100462.66
2022-09-01T19:37:14.288Z,100472.09
2022-09-01T19:39:53.380Z,100477.22
2022-09-01T19:42:27.785Z,100474.50
2022-09-01T19:45:07.039Z,100477.81
2022-09-01T19:47:41.356Z,100487.22
2022-09-01T19:50:17.892Z,100491.22
2022-09-01T19:52:56.977Z,100492.81
2022-09-01T19:55:33.433Z,100490.97
2022-09-01T19:58:05.972Z,100485.59
2022-09-01T20:00:50.667Z,100497.69
2022-09-01T20:03:23.769Z,100496.78
2022-09-01T20:05:58.309Z,100497.22
2022-09-01T20:08:33.756Z,100495.72
2022-09-01T20:11:10.341Z,100503.88
2022-09-01T20:13:52.377Z,100502.44
2022-09-01T20:16:25.774Z,100497.69
2022-09-01T20:19:01.149Z,100499.06
2022-09-01T20:21:30.197Z,100503.81
2022-09-01T20:24:05.608Z,100507.38
2022-09-01T20:26:38.607Z,100507.44
2022-09-01T20:29:14.133Z,100505.91
2022-09-01T20:31:46.471Z,100509.69
2022-09-01T20:34:22.993Z,100513.47
2022-09-01T20:36:56.284Z,100518.91
2022-09-01T20:39:50.814Z,100519.94
2022-09-01T20:42:31.701Z,100520.91
2022-09-01T20:45:01.805Z,100515.91
2022-09-01T20:47:32.500Z,100520.53
2022-09-01T20:50:05.426Z,100526.09
2022-09-01T20:52:41.015Z,100523.69
2022-09-01T20:55:14.407Z,100520.47
2022-09-01T20:57:56.235Z,100515.59
2022-09-01T21:00:27.072Z,100526.25
2022-09-01T21:03:03.024Z,100520.38
2022-09-01T21:05:46.174Z,100527.47
2022-09-01T21:08:32.489Z,100522.41
2022-09-01T21:11:13.935Z,100522.66
2022-09-01T21:13:56.552Z,100529.81
2022-09-01T21:16:35.883Z,100532.66
2022-09-01T21:19:11.961Z,100533.75
2022-09-01T21:21:51.538Z,100533.06
2022-09-01T21:24:20.790Z,100533.97
2022-09-01T21:26:50.191Z,100534.94
2022-09-01T21:29:31.349Z,100534.03
2022-09-01T21:32:01.168Z,100546.34
2022-09-01T21:34:30.188Z,100549.09
2022-09-01T21:36:58.816Z,100542.38
2022-09-01T21:39:27.439Z,100548.63
2022-09-01T21:41:56.283Z,100550.47
2022-09-01T21:44:26.574Z,100549.63
2022-09-01T21:46:55.104Z,100550.59
2022-09-01T21:49:23.770Z,100550.63
2022-09-01T21:51:53.200Z,100553.34
2022-09-01T21:54:21.772Z,100549.06
2022-09-01T21:56:53.436Z,100550.13
2022-09-01T21:59:22.582Z,100550.28
2022-09-01T22:01:52.687Z,100548.72
2022-09-01T22:04:23.229Z,100554.09
2022-09-01T22:06:52.718Z,100538.56
2022-09-01T22:09:22.043Z,100543.91
2022-09-01T22:11:52.176Z,100541.38
2022-09-01T22:14:22.148Z,100544.91
2022-09-01T22:16:52.810Z,100548.44
2022-09-01T22:19:21.338Z,100546.81
2022-09-01T22:21:50.295Z,100547.69
2022-09-01T22:24:19.693Z,100551.19
2022-09-01T22:26:48.639Z,100552.00
2022-09-01T22:29:18.182Z,100546.81
2022-09-01T22:31:46.679Z,100551.34
2022-09-01T22:34:16.407Z,100548.03
2022-09-01T22:36:47.567Z,100544.66
2022-09-01T22:39:17.732Z,100547.47
2022-09-01T22:41:46.756Z,100545.06
2022-09-01T22:44:15.335Z,100552.19
2022-09-01T22:46:44.216Z,100546.19
2022-09-01T22:49:13.163Z,100552.47
2022-09-01T22:51:44.095Z,100549.94
2022-09-01T22:54:13.754Z,100545.72
2022-09-01T22:56:43.118Z,100544.88
2022-09-01T22:59:15.052Z,100547.41
2022-09-01T23:01:46.128Z,100549.16
2022-09-01T23:04:16.931Z,100543.06
2022-09-01T23:06:49.777Z,100545.72
2022-09-01T23:09:20.158Z,100547.59
2022-09-01T23:11:49.850Z,100541.81
2022-09-01T23:14:19.730Z,100546.41
2022-09-01T23:16:51.360Z,100546.72
2022-09-01T23:19:20.461Z,100553.91
2022-09-01T23:21:51.541Z,100558.44
2022-09-01T23:24:20.450Z,100555.88
2022-09-01T23:26:50.153Z,100557.66
2022-09-01T23:29:18.997Z,100549.00
2022-09-01T23:31:47.813Z,100554.22
2022-09-01T23:34:17.783Z,100552.59
2022-09-01T23:36:46.992Z,100554.41
2022-09-01T23:39:16.999Z,100554.56
2022-09-01T23:41:45.800Z,100555.69
2022-09-01T23:44:14.700Z,100566.38
2022-09-01T23:46:45.559Z,100563.03
2022-09-01T23:49:15.959Z,100568.25
2022-09-01T23:51:45.208Z,100566.47
2022-09-01T23:54:14.618Z,100567.44
2022-09-01T23:56:44.332Z,100567.53
2022-09-01T23:59:13.337Z,100569.31
